createdAt,value
2023-03-24T00:00:47.155Z,12.86
2023-03-24T00:03:27.517Z,12.87
2023-03-24T00:06:01.963Z,12.86
2023-03-24T00:08:36.886Z,12.87
2023-03-24T00:11:11.766Z,12.88
2023-03-24T00:13:43.799Z,12.88
2023-03-24T00:16:17.113Z,12.86
2023-03-24T00:18:53.270Z,12.84
2023-03-24T00:21:26.540Z,12.82
2023-03-24T00:23:59.761Z,12.80
2023-03-24T00:26:32.474Z,12.76
2023-03-24T00:29:04.819Z,12.73
2023-03-24T00:31:40.002Z,12.69
2023-03-24T00:34:13.591Z,12.68
2023-03-24T00:36:45.470Z,12.64
2023-03-24T00:39:17.913Z,12.58
2023-03-24T00:41:49.864Z,12.54
2023-03-24T00:44:21.721Z,12.53
2023-03-24T00:46:56.633Z,12.53
2023-03-24T00:49:43.069Z,12.53
2023-03-24T00:52:18.172Z,12.54
2023-03-24T00:54:51.552Z,12.53
2023-03-24T00:57:23.332Z,12.51
2023-03-24T00:59:56.245Z,12.50
2023-03-24T01:02:29.082Z,12.49
2023-03-24T01:05:02.627Z,12.47
2023-03-24T01:07:34.654Z,12.41
2023-03-24T01:10:08.705Z,12.37
2023-03-24T01:12:41.014Z,12.34
2023-03-24T01:15:20.735Z,12.31
2023-03-24T01:17:54.474Z,12.28
2023-03-24T01:20:26.516Z,12.26
2023-03-24T01:22:58.588Z,12.24
2023-03-24T01:25:30.605Z,12.25
2023-03-24T01:28:02.658Z,12.24
2023-03-24T01:30:35.114Z,12.22
2023-03-24T01:33:06.990Z,12.19
2023-03-24T01:35:38.917Z,12.17
2023-03-24T01:38:11.725Z,12.17
2023-03-24T01:40:45.083Z,12.16
2023-03-24T01:43:20.451Z,12.16
2023-03-24T01:46:19.208Z,12.14
2023-03-24T01:48:51.924Z,12.07
2023-03-24T01:51:24.779Z,12.01
2023-03-24T01:53:59.541Z,11.98
2023-03-24T01:56:33.241Z,11.94
2023-03-24T01:59:07.262Z,11.84
2023-03-24T02:02:03.870Z,11.78
2023-03-24T02:04:58.743Z,11.75
2023-03-24T02:07:37.588Z,11.76
2023-03-24T02:10:12.808Z,11.77
2023-03-24T02:12:45.055Z,11.76
2023-03-24T02:15:19.982Z,11.75
2023-03-24T02:17:59.626Z,11.77
2023-03-24T02:21:04.008Z,11.77
2023-03-24T02:23:55.900Z,11.75
2023-03-24T02:26:55.885Z,11.72
2023-03-24T02:30:15.914Z,11.74
2023-03-24T02:33:02.569Z,11.78
2023-03-24T02:35:53.172Z,11.78
2023-03-24T02:38:42.059Z,11.83
2023-03-24T02:41:14.857Z,11.84
2023-03-24T02:43:50.828Z,11.83
2023-03-24T02:46:24.062Z,11.79
2023-03-24T02:49:04.699Z,11.77
2023-03-24T02:51:40.217Z,11.74
2023-03-24T02:54:14.400Z,11.71
2023-03-24T02:56:48.606Z,11.69
2023-03-24T02:59:52.004Z,11.68
2023-03-24T03:02:46.504Z,11.69
2023-03-24T03:05:22.573Z,11.71
2023-03-24T03:07:54.410Z,11.75
2023-03-24T03:10:26.653Z,11.77
2023-03-24T03:12:59.432Z,11.76
2023-03-24T03:15:33.545Z,11.76
2023-03-24T03:18:08.728Z,11.79
2023-03-24T03:20:51.042Z,11.80
2023-03-24T03:23:24.793Z,11.81
2023-03-24T03:26:02.550Z,11.83
2023-03-24T03:28:35.064Z,11.82
2023-03-24T03:31:09.249Z,11.81
2023-03-24T03:33:41.854Z,11.79
2023-03-24T03:36:18.326Z,11.78
2023-03-24T03:38:56.067Z,11.77
2023-03-24T03:41:28.152Z,11.77
2023-03-24T03:44:00.052Z,11.77
2023-03-24T03:46:32.242Z,11.77
2023-03-24T03:49:04.977Z,11.77
2023-03-24T03:51:36.819Z,11.77
2023-03-24T03:54:10.063Z,11.80
2023-03-24T03:56:42.058Z,11.83
2023-03-24T03:59:31.018Z,11.86
2023-03-24T04:02:05.919Z,11.85
2023-03-24T04:05:05.271Z,11.86
2023-03-24T04:07:53.036Z,11.84
2023-03-24T04:10:48.264Z,11.87
2023-03-24T04:13:23.654Z,11.89
2023-03-24T04:16:12.276Z,11.91
2023-03-24T04:19:18.517Z,11.94
2023-03-24T04:21:58.558Z,11.95
2023-03-24T04:24:40.327Z,11.93
2023-03-24T04:27:17.329Z,11.94
2023-03-24T04:29:53.690Z,11.96
2023-03-24T04:32:30.561Z,11.99
2023-03-24T04:35:03.948Z,12.00
2023-03-24T04:38:03.920Z,11.99
2023-03-24T04:40:36.899Z,11.99
2023-03-24T04:43:09.520Z,11.99
2023-03-24T04:45:42.164Z,12.00
2023-03-24T04:48:40.004Z,11.99
2023-03-24T04:51:38.284Z,11.99
2023-03-24T04:54:20.716Z,11.98
2023-03-24T04:56:56.249Z,11.99
2023-03-24T04:59:37.789Z,11.99
2023-03-24T05:02:11.049Z,12.00
2023-03-24T05:05:01.707Z,11.98
2023-03-24T05:07:40.064Z,11.96
2023-03-24T05:10:15.598Z,11.98
2023-03-24T05:12:51.537Z,11.97
2023-03-24T05:15:26.157Z,11.96
2023-03-24T05:18:02.379Z,11.93
2023-03-24T05:20:34.284Z,11.92
2023-03-24T05:23:14.936Z,11.88
2023-03-24T05:25:48.322Z,11.85
2023-03-24T05:28:21.037Z,11.81
2023-03-24T05:30:53.284Z,11.79
2023-03-24T05:33:43.726Z,11.75
2023-03-24T05:36:18.089Z,11.75
2023-03-24T05:38:55.556Z,11.77
2023-03-24T05:41:29.089Z,11.77
2023-03-24T05:44:00.916Z,11.80
2023-03-24T05:46:32.868Z,11.81
2023-03-24T05:49:05.527Z,11.84
2023-03-24T05:51:40.537Z,11.88
2023-03-24T05:54:13.314Z,11.89
2023-03-24T05:56:47.589Z,11.90
2023-03-24T05:59:19.453Z,11.92
2023-03-24T06:02:13.485Z,11.95
2023-03-24T06:05:08.404Z,11.98
2023-03-24T06:07:42.513Z,12.01
2023-03-24T06:10:14.622Z,12.02
2023-03-24T06:12:51.156Z,12.03
2023-03-24T06:15:24.431Z,12.04
2023-03-24T06:17:56.548Z,12.06
2023-03-24T06:20:33.816Z,12.07
2023-03-24T06:23:05.735Z,12.09
2023-03-24T06:25:47.640Z,12.12
2023-03-24T06:28:40.116Z,12.13
2023-03-24T06:31:20.174Z,12.14
2023-03-24T06:33:52.704Z,12.19
2023-03-24T06:36:25.830Z,12.20
2023-03-24T06:38:58.008Z,12.19
2023-03-24T06:41:29.939Z,12.20
2023-03-24T06:44:03.982Z,12.21
2023-03-24T06:46:36.166Z,12.24
2023-03-24T06:49:08.193Z,12.27
2023-03-24T06:51:41.021Z,12.29
2023-03-24T06:54:13.330Z,12.32
2023-03-24T06:56:45.265Z,12.36
2023-03-24T06:59:17.997Z,12.43
2023-03-24T07:01:50.508Z,12.54
2023-03-24T07:04:27.865Z,12.62
2023-03-24T07:07:53.331Z,12.70
2023-03-24T07:10:25.201Z,12.77
2023-03-24T07:12:57.595Z,12.85
2023-03-24T07:15:30.038Z,12.97
2023-03-24T07:18:02.119Z,13.08
2023-03-24T07:20:44.111Z,13.19
2023-03-24T07:23:20.956Z,13.30
2023-03-24T07:26:16.016Z,13.43
2023-03-24T07:28:47.783Z,13.53
2023-03-24T07:31:49.007Z,13.59
2023-03-24T07:34:21.306Z,13.72
2023-03-24T07:36:53.142Z,14.02
2023-03-24T07:39:25.184Z,14.40
2023-03-24T07:41:57.132Z,14.76
2023-03-24T07:44:41.153Z,14.98
2023-03-24T07:47:13.074Z,15.06
2023-03-24T07:49:45.048Z,15.13
2023-03-24T07:52:17.364Z,15.09
2023-03-24T07:54:52.545Z,15.07
2023-03-24T07:57:39.718Z,15.18
2023-03-24T08:00:18.060Z,15.40
2023-03-24T08:02:56.410Z,16.06
2023-03-24T08:05:47.416Z,16.76
2023-03-24T08:08:24.272Z,17.71
2023-03-24T08:10:56.061Z,17.83
2023-03-24T08:13:28.174Z,17.74
2023-03-24T08:16:00.006Z,17.95
2023-03-24T08:18:35.158Z,18.31
2023-03-24T08:21:07.381Z,18.61
2023-03-24T08:23:39.736Z,19.47
2023-03-24T08:26:11.823Z,20.15
2023-03-24T08:28:43.890Z,19.84
2023-03-24T08:31:15.806Z,19.39
2023-03-24T08:33:47.820Z,18.95
2023-03-24T08:36:19.714Z,18.57
2023-03-24T08:38:51.902Z,18.25
2023-03-24T08:41:35.040Z,17.95
2023-03-24T08:44:07.661Z,17.77
2023-03-24T08:46:39.969Z,17.62
2023-03-24T08:49:11.931Z,17.51
2023-03-24T08:51:43.759Z,17.37
2023-03-24T08:54:15.633Z,17.28
2023-03-24T08:56:47.470Z,17.17
2023-03-24T08:59:19.633Z,16.99
2023-03-24T09:01:52.048Z,16.88
2023-03-24T09:04:23.894Z,16.78
2023-03-24T09:07:02.786Z,16.69
2023-03-24T09:09:35.755Z,16.61
2023-03-24T09:12:09.737Z,16.53
2023-03-24T09:14:41.689Z,16.45
2023-03-24T09:17:13.557Z,16.37
2023-03-24T09:19:45.697Z,16.31
2023-03-24T09:22:17.516Z,16.26
2023-03-24T09:24:50.216Z,16.22
2023-03-24T09:27:23.442Z,16.21
2023-03-24T09:29:55.504Z,16.20
2023-03-24T09:32:27.366Z,16.18
2023-03-24T09:34:59.443Z,16.18
2023-03-24T09:37:32.597Z,16.20
2023-03-24T09:40:05.215Z,16.23
2023-03-24T09:42:38.676Z,16.26
2023-03-24T09:45:16.229Z,16.30
2023-03-24T09:47:47.442Z,16.34
2023-03-24T09:50:23.778Z,16.36
2023-03-24T09:52:57.750Z,16.38
2023-03-24T09:55:30.483Z,16.36
2023-03-24T09:58:04.448Z,16.32
2023-03-24T10:00:37.058Z,16.29
2023-03-24T10:03:19.405Z,16.26
2023-03-24T10:05:53.212Z,16.25
2023-03-24T10:08:29.962Z,16.25
2023-03-24T10:11:05.405Z,16.24
2023-03-24T10:13:45.192Z,16.25
2023-03-24T10:16:19.748Z,16.26
2023-03-24T10:18:53.483Z,16.25
2023-03-24T10:21:27.946Z,16.24
2023-03-24T10:24:05.345Z,16.21
2023-03-24T10:26:41.170Z,16.18
2023-03-24T10:29:23.167Z,16.14
2023-03-24T10:31:58.319Z,16.13
2023-03-24T10:34:31.407Z,16.14
2023-03-24T10:37:05.000Z,16.15
2023-03-24T10:39:44.210Z,16.17
2023-03-24T10:42:19.488Z,16.18
2023-03-24T10:44:51.796Z,16.20
2023-03-24T10:47:25.662Z,16.21
2023-03-24T10:50:00.874Z,16.23
2023-03-24T10:52:47.359Z,16.26
2023-03-24T10:55:21.265Z,16.27
2023-03-24T10:57:55.004Z,16.29
2023-03-24T11:00:29.645Z,16.32
2023-03-24T11:03:02.667Z,16.34
2023-03-24T11:05:35.875Z,16.37
2023-03-24T11:08:27.145Z,16.39
2023-03-24T11:10:59.789Z,16.44
2023-03-24T11:13:33.755Z,16.52
2023-03-24T11:16:14.278Z,16.66
2023-03-24T11:18:59.279Z,16.86
2023-03-24T11:21:32.070Z,17.12
2023-03-24T11:24:05.251Z,17.40
2023-03-24T11:26:38.384Z,17.74
2023-03-24T11:29:13.961Z,18.17
2023-03-24T11:31:50.916Z,18.57
2023-03-24T11:34:24.385Z,18.92
2023-03-24T11:36:56.739Z,19.17
2023-03-24T11:39:29.767Z,19.36
2023-03-24T11:42:07.479Z,19.60
2023-03-24T11:44:50.595Z,19.72
2023-03-24T11:47:25.737Z,19.69
2023-03-24T11:50:02.125Z,19.65
2023-03-24T11:52:34.855Z,19.71
2023-03-24T11:55:07.676Z,19.79
2023-03-24T11:57:46.119Z,19.89
2023-03-24T12:00:22.671Z,19.92
2023-03-24T12:03:33.228Z,19.98
2023-03-24T12:06:11.832Z,20.05
2023-03-24T12:08:48.502Z,20.10
2023-03-24T12:11:24.012Z,20.09
2023-03-24T12:13:56.021Z,20.07
2023-03-24T12:16:41.664Z,20.04
2023-03-24T12:19:38.466Z,19.98
2023-03-24T12:22:16.257Z,19.93
2023-03-24T12:24:57.639Z,19.90
2023-03-24T12:27:33.147Z,19.85
2023-03-24T12:30:05.802Z,19.83
2023-03-24T12:32:43.599Z,19.82
2023-03-24T12:35:39.558Z,19.78
2023-03-24T12:38:31.354Z,19.73
2023-03-24T12:41:12.428Z,19.67
2023-03-24T12:43:51.053Z,19.66
2023-03-24T12:46:46.766Z,19.66
2023-03-24T12:49:27.013Z,19.65
2023-03-24T12:52:07.334Z,19.67
2023-03-24T12:54:41.813Z,19.71
2023-03-24T12:57:15.430Z,19.71
2023-03-24T12:59:47.972Z,19.74
2023-03-24T13:02:24.449Z,19.78
2023-03-24T13:04:57.190Z,19.80
2023-03-24T13:07:29.039Z,19.86
2023-03-24T13:10:05.247Z,19.94
2023-03-24T13:12:39.746Z,19.97
2023-03-24T13:15:17.469Z,19.98
2023-03-24T13:17:52.446Z,20.00
2023-03-24T13:20:27.856Z,20.04
2023-03-24T13:23:00.039Z,20.09
2023-03-24T13:25:36.312Z,20.13
2023-03-24T13:28:11.706Z,20.13
2023-03-24T13:30:43.644Z,20.11
2023-03-24T13:33:17.276Z,20.07
2023-03-24T13:35:57.920Z,20.02
2023-03-24T13:38:34.506Z,19.99
2023-03-24T13:41:07.651Z,19.96
2023-03-24T13:43:39.522Z,19.92
2023-03-24T13:46:14.822Z,19.88
2023-03-24T13:48:47.538Z,19.81
2023-03-24T13:51:20.580Z,19.74
2023-03-24T13:53:55.089Z,19.69
2023-03-24T13:56:28.900Z,19.65
2023-03-24T13:59:19.942Z,19.62
2023-03-24T14:02:12.501Z,19.64
2023-03-24T14:04:48.356Z,19.69
2023-03-24T14:07:34.543Z,19.73
2023-03-24T14:10:27.958Z,19.74
2023-03-24T14:13:04.268Z,19.72
2023-03-24T14:15:36.636Z,19.68
2023-03-24T14:18:39.678Z,19.61
2023-03-24T14:21:11.508Z,19.52
2023-03-24T14:23:44.062Z,19.44
2023-03-24T14:26:17.634Z,19.38
2023-03-24T14:28:50.593Z,19.31
2023-03-24T14:31:24.414Z,19.25
2023-03-24T14:34:10.932Z,19.17
2023-03-24T14:36:43.620Z,19.06
2023-03-24T14:39:33.132Z,18.96
2023-03-24T14:42:19.812Z,18.89
2023-03-24T14:44:58.547Z,18.83
2023-03-24T14:47:30.809Z,18.77
2023-03-24T14:50:04.621Z,18.71
2023-03-24T14:52:38.578Z,18.67
2023-03-24T14:55:13.578Z,18.62
2023-03-24T14:58:06.374Z,18.56
2023-03-24T15:01:07.198Z,18.51
2023-03-24T15:03:59.288Z,18.43
2023-03-24T15:06:50.301Z,18.34
2023-03-24T15:09:41.239Z,18.26
2023-03-24T15:12:31.918Z,18.17
2023-03-24T15:15:23.353Z,18.08
2023-03-24T15:18:19.187Z,18.01
2023-03-24T15:21:21.245Z,17.95
2023-03-24T15:24:29.509Z,17.88
2023-03-24T15:27:26.330Z,17.82
2023-03-24T15:30:18.060Z,17.76
2023-03-24T15:33:09.337Z,17.70
2023-03-24T15:36:01.047Z,17.63
2023-03-24T15:38:52.752Z,17.54
2023-03-24T15:41:43.397Z,17.48
2023-03-24T15:44:36.021Z,17.38
2023-03-24T15:47:28.795Z,17.26
2023-03-24T15:50:33.142Z,17.15
2023-03-24T15:53:28.021Z,16.98
2023-03-24T15:56:26.291Z,16.85
2023-03-24T15:59:17.610Z,16.67
2023-03-24T16:02:11.986Z,16.51
2023-03-24T16:07:58.718Z,16.29
2023-03-24T16:10:58.676Z,16.17
2023-03-24T16:13:49.514Z,16.04
2023-03-24T16:16:44.346Z,15.92
2023-03-24T16:19:39.193Z,15.83
2023-03-24T16:22:42.044Z,15.77
2023-03-24T16:25:37.882Z,15.68
2023-03-24T16:28:32.176Z,15.60
2023-03-24T16:31:27.107Z,15.51
2023-03-24T16:34:22.387Z,15.39
2023-03-24T16:38:12.365Z,15.30
2023-03-24T16:40:40.333Z,15.21
2023-03-24T16:43:34.366Z,15.15
2023-03-24T16:46:31.860Z,15.02
2023-03-24T16:49:23.024Z,14.93
2023-03-24T16:52:30.461Z,14.90
2023-03-24T16:55:37.881Z,14.86
2023-03-24T16:59:10.649Z,14.84
2023-03-24T17:02:15.340Z,14.73
2023-03-24T17:05:33.061Z,14.61
2023-03-24T17:08:38.405Z,14.46
2023-03-24T17:11:39.624Z,14.40
2023-03-24T17:14:45.475Z,14.34
2023-03-24T17:18:05.505Z,14.28
2023-03-24T17:21:16.219Z,14.20
2023-03-24T17:27:45.400Z,14.18
2023-03-24T17:30:50.950Z,14.20
2023-03-24T17:40:30.233Z,14.17
2023-03-24T17:46:50.936Z,14.17
2023-03-24T17:50:05.519Z,14.20
2023-03-24T17:53:14.715Z,14.17
2023-03-24T17:56:40.494Z,14.11
2023-03-24T17:59:33.192Z,14.08
2023-03-24T18:02:36.734Z,14.07
2023-03-24T18:05:43.066Z,14.05
2023-03-24T18:08:37.016Z,14.06
2023-03-24T18:12:19.583Z,14.03
2023-03-24T18:15:40.958Z,14.02
2023-03-24T18:18:58.955Z,14.04
2023-03-24T18:22:27.706Z,14.05
2023-03-24T18:25:27.920Z,14.04
2023-03-24T18:28:30.234Z,14.04
2023-03-24T18:31:34.358Z,14.03
2023-03-24T18:37:48.956Z,14.02
2023-03-24T18:40:41.536Z,14.00
2023-03-24T18:43:50.155Z,13.98
2023-03-24T18:46:52.035Z,13.95
2023-03-24T18:49:55.933Z,13.95
2023-03-24T18:52:52.022Z,13.94
2023-03-24T18:55:54.190Z,13.93
2023-03-24T18:59:15.179Z,13.94
2023-03-24T19:02:22.121Z,13.98
2023-03-24T19:05:15.387Z,14.03
2023-03-24T19:08:16.040Z,14.06
2023-03-24T19:11:09.963Z,14.14
2023-03-24T19:14:09.192Z,14.19
2023-03-24T19:17:09.611Z,14.20
2023-03-24T19:20:11.520Z,14.23
2023-03-24T19:23:07.600Z,14.24
2023-03-24T19:26:14.228Z,14.29
2023-03-24T19:29:37.649Z,14.35
2023-03-24T19:32:43.640Z,14.37
2023-03-24T19:35:49.469Z,14.28
2023-03-24T19:40:29.709Z,14.12
2023-03-24T19:42:34.321Z,13.96
2023-03-24T19:45:29.437Z,13.85
2023-03-24T19:48:20.636Z,13.79
2023-03-24T19:51:22.536Z,13.63
2023-03-24T19:54:24.301Z,13.43
2023-03-24T19:57:23.233Z,13.23
2023-03-24T20:00:27.136Z,12.96
2023-03-24T20:03:36.701Z,12.62
2023-03-24T20:07:10.608Z,12.36
2023-03-24T20:10:00.078Z,12.14
2023-03-24T20:13:05.133Z,12.05
2023-03-24T20:16:40.189Z,11.96
2023-03-24T20:19:39.194Z,11.93
2023-03-24T20:22:40.274Z,11.92
2023-03-24T20:25:43.420Z,11.89
2023-03-24T20:28:34.038Z,11.86
2023-03-24T20:31:46.845Z,11.83
2023-03-24T20:34:51.545Z,11.79
2023-03-24T20:38:01.695Z,11.73
2023-03-24T20:41:06.014Z,11.74
2023-03-24T20:43:56.672Z,11.78
2023-03-24T20:46:47.653Z,11.82
2023-03-24T20:49:38.834Z,11.87
2023-03-24T20:52:33.964Z,11.91
2023-03-24T20:55:24.559Z,11.95
2023-03-24T20:58:15.919Z,11.95
2023-03-24T21:01:08.998Z,11.99
2023-03-24T21:04:08.273Z,12.02
2023-03-24T21:06:59.758Z,12.04
2023-03-24T21:09:50.200Z,12.06
2023-03-24T21:12:52.755Z,12.09
2023-03-24T21:15:46.191Z,12.06
2023-03-24T21:18:48.640Z,12.03
2023-03-24T21:21:39.538Z,11.98
2023-03-24T21:24:32.182Z,11.94
2023-03-24T21:27:23.377Z,11.95
2023-03-24T21:30:18.865Z,11.96
2023-03-24T21:33:10.145Z,11.94
2023-03-24T21:36:04.913Z,11.94
2023-03-24T21:38:56.282Z,11.94
2023-03-24T21:41:46.912Z,11.89
2023-03-24T21:44:40.688Z,11.89
2023-03-24T21:47:32.104Z,11.90
2023-03-24T21:50:24.180Z,11.87
2023-03-24T21:53:16.040Z,11.85
2023-03-24T21:56:08.118Z,11.83
2023-03-24T21:58:58.505Z,11.78
2023-03-24T22:01:52.281Z,11.72
2023-03-24T22:04:43.690Z,11.68
2023-03-24T22:07:39.096Z,11.63
2023-03-24T22:10:34.654Z,11.53
2023-03-24T22:13:27.806Z,11.48
2023-03-24T22:16:18.557Z,11.41
2023-03-24T22:19:09.467Z,11.35
2023-03-24T22:22:02.375Z,11.33
2023-03-24T22:24:53.321Z,11.32
2023-03-24T22:27:44.311Z,11.31
2023-03-24T22:30:35.115Z,11.30
2023-03-24T22:33:26.857Z,11.28
2023-03-24T22:36:17.444Z,11.23
2023-03-24T22:39:08.775Z,11.19
2023-03-24T22:42:01.089Z,11.17
2023-03-24T22:44:51.732Z,11.15
2023-03-24T22:47:45.850Z,11.14
2023-03-24T22:50:37.022Z,11.13
2023-03-24T22:53:28.529Z,11.10
2023-03-24T22:56:19.812Z,11.09
2023-03-24T22:59:10.963Z,11.08
2023-03-24T23:02:09.458Z,11.06
2023-03-24T23:05:03.008Z,11.07
2023-03-24T23:07:53.835Z,11.07
2023-03-24T23:10:45.423Z,11.08
2023-03-24T23:13:38.933Z,11.09
2023-03-24T23:16:30.267Z,11.09
2023-03-24T23:19:21.043Z,11.09
2023-03-24T23:22:12.154Z,11.06
2023-03-24T23:25:04.111Z,11.05
2023-03-24T23:27:56.224Z,11.02
2023-03-24T23:30:46.586Z,11.00
2023-03-24T23:33:37.999Z,10.97
2023-03-24T23:36:29.292Z,10.96
2023-03-24T23:39:20.330Z,10.95
2023-03-24T23:42:11.072Z,10.94
2023-03-24T23:45:01.986Z,10.94
2023-03-24T23:47:52.870Z,10.92
2023-03-24T23:50:49.376Z,10.88
2023-03-24T23:53:39.791Z,10.84
2023-03-24T23:56:30.603Z,10.83
2023-03-24T23:59:21.355Z,10.83
